Time,TemperatureF,DewpointF,PressureIn,WindDirection,WindDirectionDegrees,WindSpeedMPH,WindSpeedGustMPH,Humidity,HourlyPrecipIn,Conditions,Clouds,dailyrainin,SoftwareType,DateUTC
2013-08-08 00:53:00,70.0,69.0,29.94,North,9,1.0,4.0,96,0.00,,,0.00,,2013-08-08 04:53:00,
2013-08-08 01:43:00,70.0,69.0,29.95,North,351,1.0,3.0,96,0.00,,,0.00,,2013-08-08 05:43:00,
2013-08-08 01:52:00,70.0,69.0,29.96,NNW,340,1.0,2.0,96,0.00,,,0.00,,2013-08-08 05:52:00,
2013-08-08 02:01:00,70.0,69.0,29.96,North,359,1.0,2.0,96,0.00,,,0.00,,2013-08-08 06:01:00,
2013-08-08 02:12:00,70.0,69.0,29.96,NNW,340,0.0,3.0,96,0.00,,,0.00,,2013-08-08 06:12:00,
2013-08-08 02:22:00,70.0,69.0,29.96,NNW,340,0.0,1.0,96,0.00,,,0.00,,2013-08-08 06:22:00,
2013-08-08 02:43:00,70.0,69.0,29.96,North,349,0.0,1.0,97,0.00,,,0.00,,2013-08-08 06:43:00,
2013-08-08 02:52:00,70.0,69.0,29.96,NNW,339,1.0,1.0,97,0.00,,,0.00,,2013-08-08 06:52:00,
2013-08-08 03:02:00,70.0,69.0,29.96,NNW,340,0.0,1.0,97,0.00,,,0.00,,2013-08-08 07:02:00,
2013-08-08 03:12:00,70.0,69.0,29.96,NNE,18,1.0,2.0,96,0.00,,,0.00,,2013-08-08 07:12:00,
2013-08-08 03:22:00,70.0,69.0,29.96,NNE,28,0.0,2.0,96,0.00,,,0.00,,2013-08-08 07:22:00,
2013-08-08 03:32:00,70.0,69.0,29.96,NNE,20,0.0,1.0,96,0.00,,,0.00,,2013-08-08 07:32:00,
2013-08-08 03:43:00,70.0,69.0,29.95,NNE,20,0.0,1.0,96,0.00,,,0.00,,2013-08-08 07:43:00,
2013-08-08 03:53:00,69.0,68.0,29.95,North,356,0.0,2.0,96,0.00,,,0.00,,2013-08-08 07:53:00,
2013-08-08 04:02:00,69.0,68.0,29.95,North,356,0.0,0.0,96,0.00,,,0.00,,2013-08-08 08:02:00,
2013-08-08 04:11:00,69.0,68.0,29.95,North,356,0.0,1.0,96,0.00,,,0.00,,2013-08-08 08:11:00,
2013-08-08 04:22:00,69.0,68.0,29.95,North,356,0.0,1.0,97,0.00,,,0.00,,2013-08-08 08:22:00,
2013-08-08 04:32:00,68.0,67.0,29.95,North,356,0.0,0.0,97,0.00,,,0.00,,2013-08-08 08:32:00,
2013-08-08 04:43:00,68.0,67.0,29.95,North,356,0.0,0.0,97,0.00,,,0.00,,2013-08-08 08:43:00,
2013-08-08 04:53:00,68.0,67.0,29.95,North,353,0.0,1.0,97,0.00,,,0.00,,2013-08-08 08:53:00,
2013-08-08 05:02:00,68.0,67.0,29.95,NNE,13,0.0,2.0,97,0.00,,,0.00,,2013-08-08 09:02:00,
2013-08-08 05:12:00,68.0,67.0,29.96,NNE,12,0.0,1.0,97,0.00,,,0.00,,2013-08-08 09:12:00,
2013-08-08 05:22:00,67.0,66.0,29.96,NNE,12,0.0,0.0,97,0.00,,,0.00,,2013-08-08 09:22:00,
2013-08-08 05:32:00,67.0,66.0,29.96,NNE,12,0.0,0.0,97,0.00,,,0.00,,2013-08-08 09:32:00,
2013-08-08 06:01:00,67.0,66.0,29.97,NNW,348,0.0,0.0,97,0.00,,,0.00,,2013-08-08 10:01:00,
2013-08-08 06:52:00,67.0,66.0,29.97,North,351,0.0,1.0,96,0.00,,,0.00,,2013-08-08 10:52:00,
2013-08-08 07:02:00,67.0,66.0,29.96,North,351,0.0,1.0,95,0.00,,,0.00,,2013-08-08 11:02:00,
2013-08-08 07:22:00,67.0,65.0,29.96,NNE,22,0.0,2.0,94,0.00,,,0.00,,2013-08-08 11:22:00,
2013-08-08 07:43:00,67.0,65.0,29.97,NE,44,0.0,1.0,94,0.00,,,0.00,,2013-08-08 11:43:00,
2013-08-08 07:52:00,67.0,65.0,29.97,NE,44,0.0,1.0,94,0.00,,,0.00,,2013-08-08 11:52:00,
2013-08-08 08:32:00,67.0,65.0,29.98,ENE,76,0.0,2.0,92,0.00,,,0.00,,2013-08-08 12:32:00,
2013-08-08 08:43:00,68.0,65.0,29.97,East,87,0.0,1.0,91,0.00,,,0.00,,2013-08-08 12:43:00,
2013-08-08 08:52:00,68.0,66.0,29.97,East,91,0.0,1.0,92,0.00,,,0.00,,2013-08-08 12:52:00,
2013-08-08 09:01:00,68.0,65.0,29.98,ENE,66,0.0,2.0,91,0.00,,,0.00,,2013-08-08 13:01:00,
2013-08-08 09:22:00,68.0,65.0,29.98,NNE,25,0.0,1.0,91,0.00,,,0.00,,2013-08-08 13:22:00,
2013-08-08 09:43:00,69.0,66.0,29.99,North,8,0.0,1.0,90,0.00,,,0.00,,2013-08-08 13:43:00,
2013-08-08 09:52:00,69.0,66.0,30.00,North,353,0.0,1.0,90,0.00,,,0.00,,2013-08-08 13:52:00,
2013-08-08 10:02:00,70.0,67.0,30.00,NNE,18,0.0,1.0,89,0.00,,,0.00,,2013-08-08 14:02:00,
2013-08-08 10:22:00,71.0,67.0,30.01,NNW,337,0.0,1.0,88,0.00,,,0.00,,2013-08-08 14:22:00,
2013-08-08 10:32:00,71.0,67.0,30.01,ENE,66,0.0,2.0,86,0.00,,,0.00,,2013-08-08 14:32:00,
2013-08-08 10:43:00,72.0,67.0,30.02,NNE,32,0.0,2.0,84,0.00,,,0.00,,2013-08-08 14:43:00,
2013-08-08 10:53:00,72.0,67.0,30.02,NE,53,0.0,2.0,84,0.00,,,0.00,,2013-08-08 14:53:00,
2013-08-08 11:02:00,72.0,67.0,30.02,ENE,70,0.0,2.0,84,0.00,,,0.00,,2013-08-08 15:02:00,
2013-08-08 11:12:00,72.0,67.0,30.01,NNE,18,0.0,2.0,85,0.00,,,0.00,,2013-08-08 15:12:00,
2013-08-08 11:22:00,72.0,67.0,30.01,NE,37,0.0,1.0,85,0.00,,,0.00,,2013-08-08 15:22:00,
2013-08-08 11:32:00,73.0,68.0,30.01,North,359,0.0,1.0,84,0.00,,,0.00,,2013-08-08 15:32:00,
2013-08-08 11:43:00,73.0,68.0,30.00,NE,37,0.0,1.0,85,0.00,,,0.00,,2013-08-08 15:43:00,
2013-08-08 11:53:00,73.0,68.0,30.00,NE,54,0.0,2.0,85,0.00,,,0.00,,2013-08-08 15:53:00,
2013-08-08 12:02:00,73.0,68.0,30.01,South,180,0.0,2.0,84,0.00,,,0.00,,2013-08-08 16:02:00,
2013-08-08 12:32:00,76.0,69.0,30.01,NNE,20,0.0,1.0,79,0.00,,,0.00,,2013-08-08 16:32:00,
2013-08-08 12:42:00,77.0,70.0,30.02,North,6,0.0,2.0,79,0.00,,,0.00,,2013-08-08 16:42:00,
2013-08-08 13:32:00,77.0,69.0,30.01,North,10,0.0,1.0,77,0.00,,,0.00,,2013-08-08 17:32:00,
2013-08-08 13:43:00,78.0,71.0,30.01,NE,37,0.0,2.0,78,0.00,,,0.00,,2013-08-08 17:43:00,
2013-08-08 13:52:00,78.0,71.0,30.00,SE,129,0.0,1.0,79,0.00,,,0.00,,2013-08-08 17:52:00,
2013-08-08 14:32:00,79.0,72.0,29.99,NW,304,0.0,2.0,78,0.00,,,0.00,,2013-08-08 18:32:00,
2013-08-08 14:43:00,79.0,71.0,30.00,NNW,335,0.0,1.0,76,0.00,,,0.00,,2013-08-08 18:43:00,
2013-08-08 14:52:00,79.0,70.0,30.00,West,262,0.0,1.0,75,0.00,,,0.00,,2013-08-08 18:52:00,
2013-08-08 15:01:00,78.0,70.0,29.99,NW,307,0.0,0.0,76,0.00,,,0.00,,2013-08-08 19:01:00,
2013-08-08 15:12:00,79.0,70.0,30.00,NE,41,0.0,2.0,75,0.00,,,0.00,,2013-08-08 19:12:00,
2013-08-08 15:43:00,79.0,71.0,29.98,East,82,0.0,1.0,76,0.00,,,0.00,,2013-08-08 19:43:00,
2013-08-08 15:55:00,79.0,70.0,29.98,East,81,0.0,2.0,73,0.00,,,0.00,,2013-08-08 19:55:00,
2013-08-08 16:02:00,80.0,71.0,29.98,ENE,61,0.0,2.0,75,0.00,,,0.00,,2013-08-08 20:02:00,
2013-08-08 16:32:00,81.0,71.0,29.97,ENE,57,0.0,1.0,71,0.00,,,0.00,,2013-08-08 20:32:00,
2013-08-08 16:42:00,80.0,70.0,29.97,NE,53,0.0,1.0,72,0.00,,,0.00,,2013-08-08 20:42:00,
2013-08-08 16:52:00,80.0,71.0,29.97,ENE,58,0.0,0.0,73,0.00,,,0.00,,2013-08-08 20:52:00,
2013-08-08 17:01:00,79.0,70.0,29.97,NNE,20,0.0,2.0,75,0.00,,,0.00,,2013-08-08 21:01:00,
2013-08-08 17:25:00,79.0,71.0,29.97,SSW,210,0.0,2.0,77,0.00,,,0.00,,2013-08-08 21:25:00,
2013-08-08 17:45:00,79.0,70.0,29.97,NNE,25,0.0,0.0,75,0.00,,,0.00,,2013-08-08 21:45:00,
2013-08-08 17:53:00,79.0,70.0,29.97,NNE,25,0.0,1.0,75,0.00,,,0.00,,2013-08-08 21:53:00,
2013-08-08 18:47:00,82.0,70.0,29.97,ESE,107,0.0,0.0,68,0.00,,,0.00,,2013-08-08 22:47:00,
2013-08-08 19:05:00,82.0,71.0,29.97,ESE,117,0.0,1.0,69,0.00,,,0.00,,2013-08-08 23:05:00,
2013-08-08 19:46:00,80.0,70.0,29.96,ESE,105,0.0,0.0,72,0.00,,,0.00,,2013-08-08 23:46:00,
2013-08-08 20:05:00,77.0,70.0,29.97,ESE,105,0.0,0.0,78,0.00,,,0.00,,2013-08-09 00:05:00,
2013-08-08 20:15:00,76.0,69.0,29.97,ESE,105,0.0,0.0,79,0.00,,,0.00,,2013-08-09 00:15:00,
2013-08-08 20:24:00,76.0,69.0,29.97,ESE,106,0.0,0.0,79,0.00,,,0.00,,2013-08-09 00:24:00,
2013-08-08 20:35:00,75.0,69.0,29.97,ESE,106,0.0,0.0,81,0.00,,,0.00,,2013-08-09 00:35:00,
2013-08-08 20:45:00,75.0,69.0,29.97,ESE,106,0.0,0.0,82,0.00,,,0.00,,2013-08-09 00:45:00,
2013-08-08 21:03:00,74.0,68.0,29.98,ESE,106,0.0,0.0,83,0.00,,,0.00,,2013-08-09 01:03:00,
2013-08-08 21:25:00,74.0,69.0,29.98,ESE,106,0.0,0.0,85,0.00,,,0.00,,2013-08-09 01:25:00,
2013-08-08 21:35:00,73.0,69.0,29.98,ESE,106,0.0,0.0,86,0.00,,,0.00,,2013-08-09 01:35:00,
2013-08-08 22:04:00,72.0,67.0,29.99,ESE,106,0.0,0.0,84,0.00,,,0.00,,2013-08-09 02:04:00,
2013-08-08 22:46:00,71.0,66.0,30.00,East,93,0.0,0.0,85,0.00,,,0.00,,2013-08-09 02:46:00,
2013-08-08 22:55:00,71.0,66.0,29.99,East,93,0.0,0.0,85,0.00,,,0.00,,2013-08-09 02:55:00,
2013-08-08 23:46:00,70.0,65.0,30.00,North,358,0.0,1.0,85,0.00,,,0.00,,2013-08-09 03:46:00,